Hauptseite
METAR-TAF:

METAR-TAF

Flughäfen :

Flughafen München

München, Deutschland

Breite: 48-21N, Länge: 011-47E, Höhe: 453 m

Beobachtung

Neuester Wetterbericht von vor 13 Minuten, um 00:20 UTC
Wind 3 kt aus Süd
Temperatur 3°C
Luftfeuchtigkeit 93%
Luftdruck 1026 hPa
Sichtweite 10 km oder mehr
Leicht bewölkt in der Höhe von 3800 ft

METAR: EDDM 210020Z 19003KT 9999 FEW038 03/02 Q1026 NOSIG

Zeit: 01:33 (00:33 UTC)

Prognose

Neuester Wetterbericht von vor 1 Stunde und 33 Minuten, um 23:00 UTC
Gültige Prognose vom 21 um 00 UTC bis 22 um 06 UTC
Wind 2 kt aus unterschiedlichen Richtungen
Sichtweite 10 km oder mehr
Leicht bewölkt in der Höhe von 4000 ft
Übergehend zu
vom 21 um 06 UTC bis 21 um 08 UTC
Wind 5 kt aus West/Südwest
Übergehend zu
vom 21 um 10 UTC bis 21 um 12 UTC
Wind 10 kt aus West

TAF: EDDM 202300Z 2100/2206 VRB02KT 9999 FEW040 BECMG 2106/2108 24005KT BECMG 2110/2112 27010KT

Wetterbeobachtungen und Prognosen von mehr als 4000 Flughäfen (METAR und TAF Bericht).

Die verfügbaren Stationen werden durch gelbe und rote Markierungen auf der Karte dargestellt.

Führen Sie die Maus auf sie, um den Namen der Station zu sehen.

Darauf klicken, um die Beobachtung von Wetterbeobachtungen und Prognosen zu sehen.

Um die Karte zu ändern : klicken Sie auf den grünen Tasten mit einem schwarzen Kreuz Zum Vergrößern, auf den grünen Button mit einem Gedankenstrich zu verkleinern, oder auf die grünen Pfeile für benachbarte Karten.


METAR-TAF: